createdAt,value
2018-12-07T00:01:26.221Z,6.70
2018-12-07T00:03:55.021Z,6.17
2018-12-07T00:06:23.539Z,6.40
2018-12-07T00:08:52.144Z,6.33
2018-12-07T00:12:23.175Z,6.50
2018-12-07T00:14:52.026Z,6.12
2018-12-07T00:17:21.803Z,5.80
2018-12-07T00:19:50.348Z,5.80
2018-12-07T00:22:18.769Z,6.58
2018-12-07T00:24:48.605Z,5.90
2018-12-07T00:27:18.584Z,6.08
2018-12-07T00:29:47.194Z,5.67
2018-12-07T00:32:16.035Z,6.25
2018-12-07T00:34:44.881Z,5.78
2018-12-07T00:37:13.495Z,5.67
2018-12-07T00:39:41.887Z,5.28
2018-12-07T00:42:10.220Z,5.55
2018-12-07T00:44:38.832Z,5.17
2018-12-07T00:47:07.461Z,5.30
2018-12-07T00:49:36.283Z,5.50
2018-12-07T00:52:05.191Z,5.67
2018-12-07T00:54:33.783Z,5.55
2018-12-07T00:57:02.178Z,5.30
2018-12-07T00:59:31.338Z,5.90
2018-12-07T01:01:59.959Z,5.55
2018-12-07T01:04:28.528Z,5.60
2018-12-07T01:06:56.988Z,5.25
2018-12-07T01:09:26.685Z,5.65
2018-12-07T01:11:55.565Z,5.20
2018-12-07T01:14:24.194Z,5.30
2018-12-07T01:16:52.641Z,5.45
2018-12-07T01:19:22.668Z,5.55
2018-12-07T01:21:51.207Z,5.83
2018-12-07T01:24:19.639Z,5.75
2018-12-07T01:26:48.222Z,5.35
2018-12-07T01:29:17.161Z,5.40
2018-12-07T01:31:45.781Z,5.70
2018-12-07T01:34:15.044Z,5.35
2018-12-07T01:36:43.672Z,5.42
2018-12-07T01:39:12.681Z,5.53
2018-12-07T01:41:41.170Z,5.15
2018-12-07T01:44:09.719Z,4.87
2018-12-07T01:46:38.647Z,5.25
2018-12-07T01:49:07.554Z,5.53
2018-12-07T01:51:36.757Z,5.80
2018-12-07T01:54:05.069Z,5.30
2018-12-07T01:56:33.588Z,5.97
2018-12-07T01:59:02.414Z,5.25
2018-12-07T02:01:32.582Z,5.28
2018-12-07T02:04:01.357Z,5.45
2018-12-07T02:06:29.846Z,5.95
2018-12-07T02:08:58.398Z,5.45
2018-12-07T02:11:26.868Z,5.58
2018-12-07T02:13:55.444Z,5.50
2018-12-07T02:16:25.756Z,5.60
2018-12-07T02:18:54.066Z,5.53
2018-12-07T02:21:24.228Z,5.28
2018-12-07T02:23:52.677Z,5.85
2018-12-07T02:26:22.085Z,5.45
2018-12-07T02:28:50.679Z,5.05
2018-12-07T02:31:19.276Z,5.37
2018-12-07T02:33:49.401Z,5.40
2018-12-07T02:36:18.094Z,4.87
2018-12-07T02:38:46.739Z,5.15
2018-12-07T02:41:16.330Z,5.35
2018-12-07T02:43:46.202Z,5.45
2018-12-07T02:46:14.762Z,5.53
2018-12-07T02:48:43.211Z,5.75
2018-12-07T02:51:13.063Z,5.55
2018-12-07T02:53:41.698Z,5.53
2018-12-07T02:56:10.294Z,5.17
2018-12-07T02:58:40.564Z,5.15
2018-12-07T03:01:09.022Z,5.80
2018-12-07T03:03:37.588Z,5.28
2018-12-07T03:06:06.526Z,5.08
2018-12-07T03:08:36.703Z,5.45
2018-12-07T03:11:05.196Z,5.37
2018-12-07T03:13:34.176Z,4.95
2018-12-07T03:16:03.139Z,5.45
2018-12-07T03:18:32.030Z,5.30
2018-12-07T03:21:00.662Z,4.97
2018-12-07T03:23:30.805Z,5.30
2018-12-07T03:25:59.279Z,4.92
2018-12-07T03:28:27.846Z,5.50
2018-12-07T03:30:56.837Z,5.37
2018-12-07T03:33:26.699Z,5.25
2018-12-07T03:35:55.778Z,5.45
2018-12-07T03:38:24.365Z,4.87
2018-12-07T03:40:52.951Z,5.40
2018-12-07T03:43:22.740Z,5.33
2018-12-07T03:45:51.275Z,5.28
2018-12-07T03:48:20.844Z,5.40
2018-12-07T03:50:49.235Z,5.35
2018-12-07T03:53:18.235Z,5.95
2018-12-07T03:55:46.721Z,5.70
2018-12-07T03:58:16.689Z,5.67
2018-12-07T04:00:46.051Z,5.55
2018-12-07T04:03:14.603Z,5.28
2018-12-07T04:05:43.368Z,5.45
2018-12-07T04:08:11.726Z,5.22
2018-12-07T04:10:41.823Z,5.15
2018-12-07T04:13:10.290Z,5.70
2018-12-07T04:15:40.154Z,5.40
2018-12-07T04:18:10.257Z,5.45
2018-12-07T04:20:40.061Z,5.10
2018-12-07T04:23:09.184Z,5.28
2018-12-07T04:25:39.477Z,5.40
2018-12-07T04:28:07.906Z,5.22
2018-12-07T04:30:36.498Z,5.00
2018-12-07T04:33:06.361Z,4.85
2018-12-07T04:35:35.096Z,4.80
2018-12-07T04:38:03.523Z,5.40
2018-12-07T04:40:32.428Z,5.03
2018-12-07T04:43:01.616Z,5.10
2018-12-07T04:45:30.238Z,4.78
2018-12-07T04:47:58.736Z,4.75
2018-12-07T04:50:27.103Z,4.80
2018-12-07T04:52:55.506Z,4.80
2018-12-07T04:55:24.051Z,4.30
2018-12-07T04:57:52.546Z,4.80
2018-12-07T05:00:22.525Z,5.00
2018-12-07T05:02:51.546Z,4.53
2018-12-07T05:05:19.933Z,4.70
2018-12-07T05:07:48.230Z,4.85
2018-12-07T05:10:16.837Z,4.50
2018-12-07T05:12:45.277Z,4.60
2018-12-07T05:15:14.508Z,4.25
2018-12-07T05:17:42.943Z,4.50
2018-12-07T05:20:11.518Z,4.03
2018-12-07T05:22:40.818Z,4.33
2018-12-07T05:25:11.319Z,4.22
2018-12-07T05:27:40.349Z,4.37
2018-12-07T05:30:08.768Z,4.05
2018-12-07T05:32:38.955Z,4.10
2018-12-07T05:35:07.369Z,4.10
2018-12-07T05:37:35.774Z,3.95
2018-12-07T05:40:04.936Z,3.75
2018-12-07T05:42:34.549Z,3.90
2018-12-07T05:45:03.225Z,4.20
2018-12-07T05:47:31.641Z,4.05
2018-12-07T05:50:01.850Z,4.50
2018-12-07T05:52:30.512Z,4.20
2018-12-07T05:54:59.014Z,4.28
2018-12-07T05:57:27.729Z,3.87
2018-12-07T05:59:57.301Z,3.83
2018-12-07T06:02:26.416Z,3.80
2018-12-07T06:04:54.820Z,3.47
2018-12-07T06:07:23.972Z,3.65
2018-12-07T06:09:52.857Z,3.75
2018-12-07T06:12:21.558Z,3.17
2018-12-07T06:14:50.533Z,3.47
2018-12-07T06:17:19.798Z,3.22
2018-12-07T06:19:48.878Z,3.35
2018-12-07T06:22:18.483Z,3.37
2018-12-07T06:24:47.728Z,3.15
2018-12-07T06:27:17.134Z,2.95
2018-12-07T06:29:46.533Z,2.80
2018-12-07T06:32:15.337Z,2.90
2018-12-07T06:34:45.750Z,2.70
2018-12-07T06:37:14.241Z,2.58
2018-12-07T06:39:42.742Z,2.87
2018-12-07T06:42:11.342Z,2.58
2018-12-07T06:44:41.511Z,2.70
2018-12-07T06:47:10.855Z,2.60
2018-12-07T06:49:39.392Z,2.70
2018-12-07T06:52:07.940Z,2.55
2018-12-07T06:54:36.415Z,2.72
2018-12-07T06:57:04.831Z,2.60
2018-12-07T06:59:33.849Z,2.58
2018-12-07T07:02:03.681Z,2.60
2018-12-07T07:04:33.118Z,2.67
2018-12-07T07:07:01.923Z,2.62
2018-12-07T07:09:30.446Z,2.70
2018-12-07T07:11:58.811Z,2.67
2018-12-07T07:14:27.405Z,2.62
2018-12-07T07:16:55.712Z,2.90
2018-12-07T07:19:25.435Z,2.90
2018-12-07T07:21:54.371Z,3.08
2018-12-07T07:24:24.017Z,2.90
2018-12-07T07:26:52.606Z,2.90
2018-12-07T07:29:21.427Z,3.25
2018-12-07T07:31:50.138Z,3.15
2018-12-07T07:34:20.048Z,3.55
2018-12-07T07:36:49.104Z,3.40
2018-12-07T07:39:18.032Z,3.52
2018-12-07T07:41:47.308Z,3.05
2018-12-07T07:44:16.281Z,3.42
2018-12-07T07:46:45.717Z,3.10
2018-12-07T07:49:14.682Z,2.90
2018-12-07T07:51:44.331Z,3.22
2018-12-07T07:54:13.392Z,2.90
2018-12-07T07:56:43.176Z,3.17
2018-12-07T07:59:12.103Z,2.90
2018-12-07T08:01:41.958Z,2.87
2018-12-07T08:04:11.060Z,2.90
2018-12-07T08:06:40.417Z,2.85
2018-12-07T08:09:09.193Z,3.00
2018-12-07T08:11:39.572Z,3.00
2018-12-07T08:14:08.272Z,3.37
2018-12-07T08:16:38.002Z,3.02
2018-12-07T08:19:06.371Z,3.10
2018-12-07T08:21:35.547Z,3.77
2018-12-07T08:24:04.021Z,3.35
2018-12-07T08:26:34.081Z,3.40
2018-12-07T08:29:02.839Z,3.33
2018-12-07T08:31:31.258Z,3.85
2018-12-07T08:34:00.333Z,3.75
2018-12-07T08:36:29.134Z,4.17
2018-12-07T08:38:59.826Z,3.80
2018-12-07T08:41:28.422Z,3.90
2018-12-07T08:43:57.219Z,3.47
2018-12-07T08:46:27.240Z,3.58
2018-12-07T08:48:56.874Z,3.65
2018-12-07T08:51:27.275Z,3.50
2018-12-07T08:53:56.361Z,3.50
2018-12-07T08:56:24.687Z,3.50
2018-12-07T08:58:54.975Z,3.10
2018-12-07T09:01:23.819Z,2.92
2018-12-07T09:03:53.402Z,3.20
2018-12-07T09:06:21.763Z,3.12
2018-12-07T09:08:51.407Z,2.98
2018-12-07T09:11:19.963Z,3.35
2018-12-07T09:13:50.032Z,3.02
2018-12-07T09:16:31.645Z,3.20
2018-12-07T09:19:01.837Z,2.90
2018-12-07T09:21:30.994Z,2.75
2018-12-07T09:23:59.596Z,3.10
2018-12-07T09:26:28.147Z,3.10
2018-12-07T09:28:57.805Z,3.72
2018-12-07T09:31:26.663Z,3.75
2018-12-07T09:33:55.195Z,3.72
2018-12-07T09:36:23.608Z,3.45
2018-12-07T09:38:52.770Z,3.90
2018-12-07T09:41:22.242Z,3.50
2018-12-07T09:43:50.773Z,3.37
2018-12-07T09:46:19.130Z,3.52
2018-12-07T09:48:48.666Z,3.60
2018-12-07T09:51:17.055Z,3.40
2018-12-07T09:53:45.467Z,3.60
2018-12-07T09:56:14.159Z,3.67
2018-12-07T09:58:42.818Z,3.72
2018-12-07T10:01:11.396Z,4.00
2018-12-07T10:03:39.998Z,3.62
2018-12-07T10:06:09.533Z,3.77
2018-12-07T10:08:39.691Z,3.52
2018-12-07T10:11:08.835Z,3.35
2018-12-07T10:13:37.287Z,3.75
2018-12-07T10:16:05.728Z,3.40
2018-12-07T10:18:35.529Z,3.42
2018-12-07T10:21:04.001Z,3.77
2018-12-07T10:23:33.739Z,3.87
2018-12-07T10:26:03.397Z,4.40
2018-12-07T10:28:31.966Z,4.20
2018-12-07T10:31:01.372Z,3.92
2018-12-07T10:33:30.765Z,4.50
2018-12-07T10:35:59.231Z,4.72
2018-12-07T10:38:27.718Z,4.08
2018-12-07T10:40:57.387Z,4.03
2018-12-07T10:43:25.828Z,4.10
2018-12-07T10:45:55.534Z,3.90
2018-12-07T10:48:25.194Z,3.72
2018-12-07T10:50:53.663Z,3.83
2018-12-07T10:53:23.880Z,3.30
2018-12-07T10:55:52.794Z,4.30
2018-12-07T10:58:21.800Z,3.05
2018-12-07T11:00:55.577Z,3.45
2018-12-07T11:03:30.448Z,3.20
2018-12-07T11:06:04.817Z,2.80
2018-12-07T11:09:38.256Z,2.95
2018-12-07T11:12:12.598Z,3.30
2018-12-07T11:14:46.495Z,2.92
2018-12-07T11:17:20.322Z,4.25
2018-12-07T11:19:55.017Z,3.17
2018-12-07T11:22:30.068Z,3.60
2018-12-07T11:25:03.657Z,4.12
2018-12-07T11:27:37.814Z,2.60
2018-12-07T11:30:11.517Z,3.00
2018-12-07T11:33:43.114Z,3.10
2018-12-07T11:36:11.982Z,3.20
2018-12-07T11:38:40.432Z,3.08
2018-12-07T11:41:08.933Z,2.87
2018-12-07T11:43:37.613Z,3.15
2018-12-07T11:46:06.525Z,3.15
2018-12-07T11:48:34.960Z,3.05
2018-12-07T11:51:03.644Z,2.90
2018-12-07T11:53:33.286Z,3.17
2018-12-07T11:58:36.204Z,3.70
2018-12-07T12:01:04.684Z,3.60
2018-12-07T12:03:33.239Z,3.40
2018-12-07T12:06:02.147Z,3.35
2018-12-07T12:08:32.044Z,3.12
2018-12-07T12:11:00.619Z,3.47
2018-12-07T12:13:30.802Z,3.22
2018-12-07T12:15:59.220Z,3.10
2018-12-07T12:18:29.212Z,3.40
2018-12-07T12:20:59.673Z,3.10
2018-12-07T12:23:28.148Z,3.05
2018-12-07T12:25:59.489Z,3.50
2018-12-07T12:28:27.929Z,3.22
2018-12-07T12:30:56.635Z,3.35
2018-12-07T12:33:25.072Z,3.17
2018-12-07T12:35:53.585Z,3.22
2018-12-07T12:38:22.106Z,3.30
2018-12-07T12:40:51.176Z,3.10
2018-12-07T12:43:20.678Z,3.98
2018-12-07T12:45:50.451Z,3.58
2018-12-07T12:48:19.505Z,3.42
2018-12-07T12:50:48.931Z,3.72
2018-12-07T12:53:17.568Z,3.37
2018-12-07T12:55:45.948Z,3.72
2018-12-07T12:58:14.391Z,3.70
2018-12-07T13:00:42.763Z,3.60
2018-12-07T13:03:13.142Z,3.60
2018-12-07T13:05:41.558Z,3.27
2018-12-07T13:08:11.418Z,3.22
2018-12-07T13:10:39.824Z,2.90
2018-12-07T13:13:09.199Z,3.10
2018-12-07T13:15:38.131Z,2.80
2018-12-07T13:18:07.680Z,3.25
2018-12-07T13:20:36.716Z,3.00
2018-12-07T13:23:05.480Z,3.20
2018-12-07T13:25:34.947Z,3.10
2018-12-07T13:28:03.745Z,3.15
2018-12-07T13:30:33.076Z,3.90
2018-12-07T13:33:03.684Z,4.10
2018-12-07T13:35:32.353Z,4.22
2018-12-07T13:38:01.528Z,4.10
2018-12-07T13:40:30.302Z,3.83
2018-12-07T13:42:59.281Z,3.75
2018-12-07T13:45:28.106Z,3.92
2018-12-07T13:47:56.957Z,3.75
2018-12-07T13:50:32.414Z,3.90
2018-12-07T13:53:00.936Z,3.62
2018-12-07T13:55:29.811Z,3.95
2018-12-07T13:57:59.143Z,4.35
2018-12-07T14:00:29.195Z,4.03
2018-12-07T14:02:58.085Z,3.50
2018-12-07T14:05:32.251Z,3.50
2018-12-07T14:07:58.373Z,4.20
2018-12-07T14:10:27.895Z,3.80
2018-12-07T14:12:58.222Z,4.15
2018-12-07T14:15:27.530Z,4.47
2018-12-07T14:17:57.955Z,4.90
2018-12-07T14:20:27.467Z,5.20
2018-12-07T14:22:56.974Z,4.92
2018-12-07T14:25:26.310Z,5.40
2018-12-07T14:27:56.061Z,4.97
2018-12-07T14:30:25.223Z,4.70
2018-12-07T14:32:55.054Z,4.83
2018-12-07T14:35:24.588Z,4.65
2018-12-07T14:37:54.929Z,4.00
2018-12-07T14:40:24.366Z,4.83
2018-12-07T14:42:54.320Z,5.92
2018-12-07T14:45:23.744Z,5.50
2018-12-07T14:47:52.574Z,9.35
2018-12-07T14:50:21.621Z,7.00
2018-12-07T14:52:50.812Z,9.20
2018-12-07T14:55:20.633Z,7.42
2018-12-07T14:57:50.228Z,13.88
2018-12-07T15:00:19.601Z,8.88
2018-12-07T15:02:48.721Z,7.55
2018-12-07T15:05:18.204Z,8.30
2018-12-07T15:07:48.153Z,6.15
2018-12-07T15:10:17.414Z,6.40
2018-12-07T15:12:46.687Z,5.30
2018-12-07T15:15:16.432Z,5.28
2018-12-07T15:17:47.822Z,6.45
2018-12-07T15:20:17.000Z,6.47
2018-12-07T15:22:46.685Z,4.95
2018-12-07T15:25:16.899Z,5.08
2018-12-07T15:27:45.921Z,4.47
2018-12-07T15:30:16.451Z,4.12
2018-12-07T15:32:46.524Z,4.08
2018-12-07T15:35:16.820Z,4.75
2018-12-07T15:37:47.528Z,4.55
2018-12-07T15:40:16.834Z,5.45
2018-12-07T15:42:46.532Z,6.00
2018-12-07T15:45:15.580Z,4.67
2018-12-07T15:47:45.790Z,4.17
2018-12-07T15:50:16.418Z,5.10
2018-12-07T15:52:46.947Z,4.17
2018-12-07T15:55:16.211Z,5.83
2018-12-07T15:57:45.149Z,5.33
2018-12-07T16:00:15.079Z,4.92
2018-12-07T16:02:45.612Z,4.80
2018-12-07T16:05:15.315Z,4.83
2018-12-07T16:07:44.297Z,4.90
2018-12-07T16:10:13.236Z,5.17
2018-12-07T16:12:43.006Z,6.15
2018-12-07T16:15:12.386Z,6.17
2018-12-07T16:17:43.930Z,6.08
2018-12-07T16:20:15.958Z,6.50
2018-12-07T16:22:45.722Z,5.30
2018-12-07T16:25:15.692Z,5.00
2018-12-07T16:27:44.760Z,4.55
2018-12-07T16:30:14.590Z,5.67
2018-12-07T16:32:43.735Z,4.80
2018-12-07T16:35:13.066Z,7.50
2018-12-07T16:37:41.720Z,7.75
2018-12-07T16:40:10.751Z,13.83
2018-12-07T16:42:40.489Z,7.08
2018-12-07T16:45:10.238Z,8.50
2018-12-07T16:47:38.962Z,6.42
2018-12-07T16:50:08.065Z,6.03
2018-12-07T16:52:38.385Z,5.05
2018-12-07T16:55:07.888Z,5.72
2018-12-07T16:57:37.969Z,4.60
2018-12-07T17:00:07.982Z,4.75
2018-12-07T17:02:36.876Z,4.72
2018-12-07T17:05:07.782Z,4.80
2018-12-07T17:07:38.054Z,4.40
2018-12-07T17:10:07.572Z,5.35
2018-12-07T17:12:37.517Z,5.03
2018-12-07T17:15:09.274Z,5.25
2018-12-07T17:17:39.666Z,7.87
2018-12-07T17:20:08.459Z,6.37
2018-12-07T17:22:37.349Z,5.95
2018-12-07T17:25:08.079Z,4.83
2018-12-07T17:27:38.723Z,5.70
2018-12-07T17:30:08.527Z,5.67
2018-12-07T17:32:38.235Z,5.22
2018-12-07T17:35:07.037Z,5.50
2018-12-07T17:37:35.878Z,5.90
2018-12-07T17:40:05.808Z,5.53
2018-12-07T17:42:34.562Z,6.83
2018-12-07T17:45:04.636Z,5.50
2018-12-07T17:47:33.998Z,9.75
2018-12-07T17:50:05.677Z,4.53
2018-12-07T17:52:35.809Z,6.15
2018-12-07T17:55:04.711Z,5.90
2018-12-07T17:57:35.330Z,6.53
2018-12-07T18:00:07.112Z,5.62
2018-12-07T18:02:35.790Z,6.05
2018-12-07T18:05:05.250Z,7.00
2018-12-07T18:07:35.071Z,5.95
2018-12-07T18:10:05.269Z,6.20
2018-12-07T18:12:34.635Z,5.60
2018-12-07T18:15:03.458Z,5.70
2018-12-07T18:17:33.533Z,5.33
2018-12-07T18:20:02.610Z,5.80
2018-12-07T18:22:32.978Z,5.17
2018-12-07T18:25:03.033Z,5.35
2018-12-07T18:27:33.267Z,5.05
2018-12-07T18:30:01.892Z,5.10
2018-12-07T18:32:31.670Z,5.58
2018-12-07T18:35:00.835Z,6.72
2018-12-07T18:37:29.721Z,6.78
2018-12-07T18:39:59.293Z,9.35
2018-12-07T18:42:28.324Z,5.80
2018-12-07T18:44:57.313Z,11.28
2018-12-07T18:47:26.256Z,5.75
2018-12-07T18:49:58.369Z,4.90
2018-12-07T18:52:28.301Z,4.87
2018-12-07T18:54:58.345Z,5.25
2018-12-07T18:57:28.225Z,4.90
2018-12-07T18:59:58.651Z,4.58
2018-12-07T19:02:28.508Z,5.42
2018-12-07T19:04:57.368Z,4.62
2018-12-07T19:07:27.021Z,5.33
2018-12-07T19:09:56.549Z,5.20
2018-12-07T19:12:26.336Z,5.10
2018-12-07T19:14:55.571Z,4.85
2018-12-07T19:17:24.316Z,5.42
2018-12-07T19:19:55.012Z,5.50
2018-12-07T19:22:25.080Z,5.80
2018-12-07T19:24:54.802Z,5.28
2018-12-07T19:27:24.679Z,5.90
2018-12-07T19:29:54.206Z,6.40
2018-12-07T19:32:23.243Z,5.33
2018-12-07T19:34:52.323Z,4.87
2018-12-07T19:37:21.957Z,7.22
2018-12-07T19:39:51.114Z,6.20
2018-12-07T19:42:20.942Z,5.62
2018-12-07T19:44:50.072Z,7.05
2018-12-07T19:47:19.466Z,6.17
2018-12-07T19:49:49.757Z,5.95
2018-12-07T19:52:22.204Z,5.72
2018-12-07T19:54:54.512Z,5.97
2018-12-07T19:57:24.582Z,6.15
2018-12-07T19:59:53.616Z,6.70
2018-12-07T20:02:22.983Z,6.78
2018-12-07T20:04:53.011Z,6.67
2018-12-07T20:07:22.282Z,6.65
2018-12-07T20:09:51.261Z,8.03
2018-12-07T20:12:20.301Z,5.78
2018-12-07T20:14:50.741Z,5.85
2018-12-07T20:17:19.600Z,6.28
2018-12-07T20:19:48.992Z,7.15
2018-12-07T20:22:18.291Z,7.70
2018-12-07T20:24:47.532Z,6.95
2018-12-07T20:27:16.503Z,7.22
2018-12-07T20:29:46.945Z,7.83
2018-12-07T20:32:16.344Z,7.53
2018-12-07T20:34:45.450Z,8.10
2018-12-07T20:37:16.396Z,7.42
2018-12-07T20:39:45.389Z,8.15
2018-12-07T20:42:14.314Z,7.70
2018-12-07T20:44:43.254Z,7.60
2018-12-07T20:47:12.814Z,7.15
2018-12-07T20:49:42.242Z,7.53
2018-12-07T20:52:12.355Z,7.05
2018-12-07T20:54:42.551Z,7.40
2018-12-07T20:57:11.616Z,7.17
2018-12-07T20:59:40.973Z,7.22
2018-12-07T21:02:10.674Z,6.75
2018-12-07T21:04:42.118Z,6.72
2018-12-07T21:07:21.464Z,7.00
2018-12-07T21:11:17.256Z,6.03
2018-12-07T21:13:51.585Z,6.45
2018-12-07T21:17:18.228Z,6.85
2018-12-07T21:19:52.745Z,6.60
2018-12-07T21:22:21.707Z,7.25
2018-12-07T21:24:51.965Z,6.67
2018-12-07T21:27:21.225Z,6.95
2018-12-07T21:30:16.110Z,6.53
2018-12-07T21:32:45.765Z,7.90
2018-12-07T21:35:15.718Z,6.15
2018-12-07T21:37:45.940Z,6.17
2018-12-07T21:40:32.364Z,6.17
2018-12-07T21:43:02.651Z,6.00
2018-12-07T21:45:32.040Z,6.15
2018-12-07T21:48:20.391Z,5.33
2018-12-07T21:50:52.450Z,6.17
2018-12-07T21:53:22.164Z,5.80
2018-12-07T21:55:52.154Z,6.37
2018-12-07T21:58:21.217Z,4.80
2018-12-07T22:00:51.291Z,4.85
2018-12-07T22:03:20.463Z,5.17
2018-12-07T22:05:49.325Z,5.37
2018-12-07T22:08:19.810Z,4.80
2018-12-07T22:10:49.135Z,4.75
2018-12-07T22:13:18.292Z,5.17
2018-12-07T22:15:47.747Z,4.92
2018-12-07T22:18:17.052Z,4.45
2018-12-07T22:20:46.047Z,6.17
2018-12-07T22:23:15.361Z,5.28
2018-12-07T22:25:46.052Z,4.72
2018-12-07T22:28:15.160Z,5.53
2018-12-07T22:30:44.996Z,5.80
2018-12-07T22:33:15.235Z,5.60
2018-12-07T22:35:44.176Z,5.17
2018-12-07T22:38:14.351Z,5.12
2018-12-07T22:40:43.884Z,6.55
2018-12-07T22:43:13.623Z,7.20
2018-12-07T22:45:42.596Z,7.40
2018-12-07T22:48:12.162Z,6.00
2018-12-07T22:50:41.933Z,24.05
2018-12-07T22:53:11.919Z,23.07
2018-12-07T22:55:41.589Z,17.90
2018-12-07T22:58:11.035Z,21.77
2018-12-07T23:00:44.230Z,33.75
2018-12-07T23:03:14.302Z,27.27
2018-12-07T23:05:44.461Z,19.67
2018-12-07T23:08:13.660Z,16.30
2018-12-07T23:10:53.392Z,15.80
2018-12-07T23:13:25.705Z,16.67
2018-12-07T23:15:54.683Z,14.85
2018-12-07T23:18:24.686Z,12.65
2018-12-07T23:20:54.691Z,9.68
2018-12-07T23:23:23.791Z,8.80
2018-12-07T23:25:52.896Z,13.62
2018-12-07T23:28:22.409Z,11.00
2018-12-07T23:30:51.315Z,9.88
2018-12-07T23:33:20.042Z,9.95
2018-12-07T23:35:48.950Z,9.98
2018-12-07T23:38:17.729Z,9.73
2018-12-07T23:40:47.586Z,9.48
2018-12-07T23:43:17.484Z,9.60
2018-12-07T23:45:47.333Z,9.53
2018-12-07T23:48:16.147Z,9.45
2018-12-07T23:50:44.934Z,8.95
2018-12-07T23:53:14.777Z,9.80
2018-12-07T23:55:43.450Z,9.10
2018-12-07T23:58:12.935Z,9.03
